sensor_id;sensor_type;location;lat;lon;timestamp;temperature;humidity
2721;DHT22;1368;49.484;11.112;2023-02-28T00:00:10;-2.30;99.90
2721;DHT22;1368;49.484;11.112;2023-02-28T00:02:41;-2.30;99.90
2721;DHT22;1368;49.484;11.112;2023-02-28T00:05:08;-2.30;99.90
2721;DHT22;1368;49.484;11.112;2023-02-28T00:07:34;-2.20;99.90
2721;DHT22;1368;49.484;11.112;2023-02-28T00:10:00;-2.10;99.90
2721;DHT22;1368;49.484;11.112;2023-02-28T00:12:26;-2.10;99.90
2721;DHT22;1368;49.484;11.112;2023-02-28T00:14:52;-2.10;99.90
2721;DHT22;1368;49.484;11.112;2023-02-28T00:17:18;-2.10;99.90
2721;DHT22;1368;49.484;11.112;2023-02-28T00:19:47;-2.00;99.90
2721;DHT22;1368;49.484;11.112;2023-02-28T00:22:14;-2.10;99.90
2721;DHT22;1368;49.484;11.112;2023-02-28T00:24:40;-2.10;99.90
2721;DHT22;1368;49.484;11.112;2023-02-28T00:27:05;-2.10;99.90
2721;DHT22;1368;49.484;11.112;2023-02-28T00:29:31;-2.10;99.90
2721;DHT22;1368;49.484;11.112;2023-02-28T00:31:57;-2.10;99.90
2721;DHT22;1368;49.484;11.112;2023-02-28T00:34:22;-2.10;99.90
2721;DHT22;1368;49.484;11.112;2023-02-28T00:36:48;-2.20;99.90
2721;DHT22;1368;49.484;11.112;2023-02-28T00:39:16;-2.10;99.90
2721;DHT22;1368;49.484;11.112;2023-02-28T00:41:42;-2.10;99.90
2721;DHT22;1368;49.484;11.112;2023-02-28T00:44:07;-2.10;99.90
2721;DHT22;1368;49.484;11.112;2023-02-28T00:46:33;-2.10;99.90
2721;DHT22;1368;49.484;11.112;2023-02-28T00:48:59;-2.00;99.90
2721;DHT22;1368;49.484;11.112;2023-02-28T00:51:24;-2.10;99.90
2721;DHT22;1368;49.484;11.112;2023-02-28T00:53:50;-2.10;99.90
2721;DHT22;1368;49.484;11.112;2023-02-28T00:56:15;-2.10;99.90
2721;DHT22;1368;49.484;11.112;2023-02-28T00:58:41;-2.10;99.90
2721;DHT22;1368;49.484;11.112;2023-02-28T01:01:06;-2.10;99.90
2721;DHT22;1368;49.484;11.112;2023-02-28T01:03:32;-2.10;99.90
2721;DHT22;1368;49.484;11.112;2023-02-28T01:05:57;-2.00;99.90
2721;DHT22;1368;49.484;11.112;2023-02-28T01:08:23;-2.10;99.90
2721;DHT22;1368;49.484;11.112;2023-02-28T01:10:49;-2.10;99.90
2721;DHT22;1368;49.484;11.112;2023-02-28T01:13:15;-2.00;99.90
2721;DHT22;1368;49.484;11.112;2023-02-28T01:15:45;-2.00;99.90
2721;DHT22;1368;49.484;11.112;2023-02-28T01:18:11;-2.00;99.90
2721;DHT22;1368;49.484;11.112;2023-02-28T01:20:38;-2.00;99.90
2721;DHT22;1368;49.484;11.112;2023-02-28T01:23:03;-2.10;99.90
2721;DHT22;1368;49.484;11.112;2023-02-28T01:25:29;-2.10;99.90
2721;DHT22;1368;49.484;11.112;2023-02-28T01:27:54;-2.10;99.90
2721;DHT22;1368;49.484;11.112;2023-02-28T01:30:20;-2.10;99.90
2721;DHT22;1368;49.484;11.112;2023-02-28T01:32:46;-2.10;99.90
2721;DHT22;1368;49.484;11.112;2023-02-28T01:35:11;-2.10;99.90
2721;DHT22;1368;49.484;11.112;2023-02-28T01:37:37;-2.10;99.90
2721;DHT22;1368;49.484;11.112;2023-02-28T01:40:03;-2.10;99.90
2721;DHT22;1368;49.484;11.112;2023-02-28T01:42:28;-2.10;99.90
2721;DHT22;1368;49.484;11.112;2023-02-28T01:47:35;-2.10;99.90
2721;DHT22;1368;49.484;11.112;2023-02-28T01:50:06;-2.10;99.90
2721;DHT22;1368;49.484;11.112;2023-02-28T01:52:34;-2.20;99.90
2721;DHT22;1368;49.484;11.112;2023-02-28T01:55:01;-2.20;99.90
2721;DHT22;1368;49.484;11.112;2023-02-28T01:57:38;-2.20;99.90
2721;DHT22;1368;49.484;11.112;2023-02-28T02:00:08;-2.20;99.90
2721;DHT22;1368;49.484;11.112;2023-02-28T02:02:35;-2.20;99.90
2721;DHT22;1368;49.484;11.112;2023-02-28T02:05:29;-2.10;99.90
2721;DHT22;1368;49.484;11.112;2023-02-28T02:07:59;-2.10;99.90
2721;DHT22;1368;49.484;11.112;2023-02-28T02:25:11;-2.30;99.90
2721;DHT22;1368;49.484;11.112;2023-02-28T02:37:21;-2.30;99.90
2721;DHT22;1368;49.484;11.112;2023-02-28T02:39:54;-2.40;99.90
2721;DHT22;1368;49.484;11.112;2023-02-28T02:42:40;-2.40;99.90
2721;DHT22;1368;49.484;11.112;2023-02-28T02:45:12;-2.30;99.90
2721;DHT22;1368;49.484;11.112;2023-02-28T02:47:41;-2.20;99.90
2721;DHT22;1368;49.484;11.112;2023-02-28T02:50:14;-2.40;99.90
2721;DHT22;1368;49.484;11.112;2023-02-28T02:52:45;-2.30;99.90
2721;DHT22;1368;49.484;11.112;2023-02-28T02:55:13;-2.40;99.90
2721;DHT22;1368;49.484;11.112;2023-02-28T02:57:47;-2.40;99.90
2721;DHT22;1368;49.484;11.112;2023-02-28T03:00:16;-2.40;99.90
2721;DHT22;1368;49.484;11.112;2023-02-28T03:02:44;-2.40;99.90
2721;DHT22;1368;49.484;11.112;2023-02-28T03:05:20;-2.30;99.90
2721;DHT22;1368;49.484;11.112;2023-02-28T03:07:47;-2.30;99.90
2721;DHT22;1368;49.484;11.112;2023-02-28T03:10:34;-2.30;99.90
2721;DHT22;1368;49.484;11.112;2023-02-28T03:18:58;-2.50;99.90
2721;DHT22;1368;49.484;11.112;2023-02-28T03:24:25;-2.40;99.90
2721;DHT22;1368;49.484;11.112;2023-02-28T03:27:37;-2.40;99.90
2721;DHT22;1368;49.484;11.112;2023-02-28T03:30:06;-2.40;99.90
2721;DHT22;1368;49.484;11.112;2023-02-28T03:32:53;-2.40;99.90
2721;DHT22;1368;49.484;11.112;2023-02-28T03:35:32;-2.40;99.90
2721;DHT22;1368;49.484;11.112;2023-02-28T03:40:57;-2.30;99.90
2721;DHT22;1368;49.484;11.112;2023-02-28T03:43:30;-2.40;99.90
2721;DHT22;1368;49.484;11.112;2023-02-28T03:45:59;-2.40;99.90
2721;DHT22;1368;49.484;11.112;2023-02-28T03:48:40;-2.30;99.90
2721;DHT22;1368;49.484;11.112;2023-02-28T03:51:10;-2.40;99.90
2721;DHT22;1368;49.484;11.112;2023-02-28T03:53:53;-2.40;99.90
2721;DHT22;1368;49.484;11.112;2023-02-28T03:56:24;-2.30;99.90
2721;DHT22;1368;49.484;11.112;2023-02-28T03:59:13;-2.30;99.90
2721;DHT22;1368;49.484;11.112;2023-02-28T04:01:45;-2.40;99.90
2721;DHT22;1368;49.484;11.112;2023-02-28T04:04:12;-2.40;99.90
2721;DHT22;1368;49.484;11.112;2023-02-28T04:06:39;-2.40;99.90
2721;DHT22;1368;49.484;11.112;2023-02-28T04:09:07;-2.30;99.90
2721;DHT22;1368;49.484;11.112;2023-02-28T04:11:44;-2.20;99.90
2721;DHT22;1368;49.484;11.112;2023-02-28T04:14:11;-2.30;99.90
2721;DHT22;1368;49.484;11.112;2023-02-28T04:16:39;-2.30;99.90
2721;DHT22;1368;49.484;11.112;2023-02-28T04:19:07;-2.30;99.90
2721;DHT22;1368;49.484;11.112;2023-02-28T04:21:38;-2.30;99.90
2721;DHT22;1368;49.484;11.112;2023-02-28T04:24:05;-2.40;99.90
2721;DHT22;1368;49.484;11.112;2023-02-28T04:26:36;-2.30;99.90
2721;DHT22;1368;49.484;11.112;2023-02-28T04:29:04;-2.30;99.90
2721;DHT22;1368;49.484;11.112;2023-02-28T04:31:29;-2.30;99.90
2721;DHT22;1368;49.484;11.112;2023-02-28T04:33:55;-2.20;99.90
2721;DHT22;1368;49.484;11.112;2023-02-28T04:36:21;-2.10;99.90
2721;DHT22;1368;49.484;11.112;2023-02-28T04:38:48;-2.20;99.90
2721;DHT22;1368;49.484;11.112;2023-02-28T04:41:14;-2.30;99.90
2721;DHT22;1368;49.484;11.112;2023-02-28T04:43:39;-2.20;99.90
2721;DHT22;1368;49.484;11.112;2023-02-28T04:46:05;-2.30;99.90
2721;DHT22;1368;49.484;11.112;2023-02-28T04:48:34;-2.30;99.90
2721;DHT22;1368;49.484;11.112;2023-02-28T04:51:05;-2.30;99.90
2721;DHT22;1368;49.484;11.112;2023-02-28T04:53:31;-2.30;99.90
2721;DHT22;1368;49.484;11.112;2023-02-28T04:55:57;-2.20;99.90
2721;DHT22;1368;49.484;11.112;2023-02-28T04:58:23;-2.20;99.90
2721;DHT22;1368;49.484;11.112;2023-02-28T05:00:49;-2.20;99.90
2721;DHT22;1368;49.484;11.112;2023-02-28T05:03:15;-2.20;99.90
2721;DHT22;1368;49.484;11.112;2023-02-28T05:05:40;-2.10;99.90
2721;DHT22;1368;49.484;11.112;2023-02-28T05:08:06;-2.20;99.90
2721;DHT22;1368;49.484;11.112;2023-02-28T05:10:32;-2.10;99.90
2721;DHT22;1368;49.484;11.112;2023-02-28T05:12:58;-2.10;99.90
2721;DHT22;1368;49.484;11.112;2023-02-28T05:15:23;-2.10;99.90
2721;DHT22;1368;49.484;11.112;2023-02-28T05:17:49;-2.10;99.90
2721;DHT22;1368;49.484;11.112;2023-02-28T05:20:15;-2.20;99.90
2721;DHT22;1368;49.484;11.112;2023-02-28T05:22:41;-2.20;99.90
2721;DHT22;1368;49.484;11.112;2023-02-28T05:25:12;-2.30;99.90
2721;DHT22;1368;49.484;11.112;2023-02-28T05:27:38;-2.30;99.90
2721;DHT22;1368;49.484;11.112;2023-02-28T05:30:04;-2.20;99.90
2721;DHT22;1368;49.484;11.112;2023-02-28T05:32:31;-2.20;99.90
2721;DHT22;1368;49.484;11.112;2023-02-28T05:34:57;-2.20;99.90
2721;DHT22;1368;49.484;11.112;2023-02-28T05:37:22;-2.00;99.90
2721;DHT22;1368;49.484;11.112;2023-02-28T05:39:48;-2.10;99.90
2721;DHT22;1368;49.484;11.112;2023-02-28T05:42:13;-2.20;99.90
2721;DHT22;1368;49.484;11.112;2023-02-28T05:44:39;-2.20;99.90
2721;DHT22;1368;49.484;11.112;2023-02-28T05:47:04;-2.30;99.90
2721;DHT22;1368;49.484;11.112;2023-02-28T05:49:30;-2.30;99.90
2721;DHT22;1368;49.484;11.112;2023-02-28T05:51:55;-2.40;99.90
2721;DHT22;1368;49.484;11.112;2023-02-28T05:54:21;-2.40;99.90
2721;DHT22;1368;49.484;11.112;2023-02-28T05:56:46;-2.40;99.90
2721;DHT22;1368;49.484;11.112;2023-02-28T05:59:12;-2.40;99.90
2721;DHT22;1368;49.484;11.112;2023-02-28T06:01:39;-2.40;99.90
2721;DHT22;1368;49.484;11.112;2023-02-28T06:04:08;-2.40;99.90
2721;DHT22;1368;49.484;11.112;2023-02-28T06:06:33;-2.40;99.90
2721;DHT22;1368;49.484;11.112;2023-02-28T06:09:00;-2.40;99.90
2721;DHT22;1368;49.484;11.112;2023-02-28T06:11:27;-2.40;99.90
2721;DHT22;1368;49.484;11.112;2023-02-28T06:13:57;-2.40;99.90
2721;DHT22;1368;49.484;11.112;2023-02-28T06:16:25;-2.50;99.90
2721;DHT22;1368;49.484;11.112;2023-02-28T06:18:51;-2.50;99.90
2721;DHT22;1368;49.484;11.112;2023-02-28T06:21:18;-2.40;99.90
2721;DHT22;1368;49.484;11.112;2023-02-28T06:23:44;-2.40;99.90
2721;DHT22;1368;49.484;11.112;2023-02-28T06:26:10;-2.40;99.90
2721;DHT22;1368;49.484;11.112;2023-02-28T06:28:36;-2.30;99.90
2721;DHT22;1368;49.484;11.112;2023-02-28T06:31:13;-2.30;99.90
2721;DHT22;1368;49.484;11.112;2023-02-28T06:33:40;-2.20;99.90
2721;DHT22;1368;49.484;11.112;2023-02-28T06:36:07;-2.10;99.90
2721;DHT22;1368;49.484;11.112;2023-02-28T06:38:33;-2.10;99.90
2721;DHT22;1368;49.484;11.112;2023-02-28T06:40:59;-2.10;99.90
2721;DHT22;1368;49.484;11.112;2023-02-28T06:43:29;-2.10;99.90
2721;DHT22;1368;49.484;11.112;2023-02-28T06:45:56;-2.00;99.90
2721;DHT22;1368;49.484;11.112;2023-02-28T06:48:22;-1.80;99.90
2721;DHT22;1368;49.484;11.112;2023-02-28T06:50:47;-1.20;99.90
2721;DHT22;1368;49.484;11.112;2023-02-28T06:53:13;-0.80;99.90
2721;DHT22;1368;49.484;11.112;2023-02-28T06:55:39;-0.10;99.90
2721;DHT22;1368;49.484;11.112;2023-02-28T06:58:05;0.20;99.90
2721;DHT22;1368;49.484;11.112;2023-02-28T07:00:41;0.30;99.90
2721;DHT22;1368;49.484;11.112;2023-02-28T07:03:07;0.70;99.90
2721;DHT22;1368;49.484;11.112;2023-02-28T07:05:35;1.10;99.90
2721;DHT22;1368;49.484;11.112;2023-02-28T07:08:02;1.40;99.90
2721;DHT22;1368;49.484;11.112;2023-02-28T07:10:29;1.60;99.90
2721;DHT22;1368;49.484;11.112;2023-02-28T07:12:54;1.70;99.90
2721;DHT22;1368;49.484;11.112;2023-02-28T07:15:20;1.60;99.90
2721;DHT22;1368;49.484;11.112;2023-02-28T07:17:45;1.70;99.90
2721;DHT22;1368;49.484;11.112;2023-02-28T07:20:12;1.80;99.90
2721;DHT22;1368;49.484;11.112;2023-02-28T07:22:37;2.10;99.90
2721;DHT22;1368;49.484;11.112;2023-02-28T07:25:04;2.00;99.90
2721;DHT22;1368;49.484;11.112;2023-02-28T07:27:30;1.90;99.90
2721;DHT22;1368;49.484;11.112;2023-02-28T07:29:55;1.70;99.90
2721;DHT22;1368;49.484;11.112;2023-02-28T07:32:21;1.60;99.90
2721;DHT22;1368;49.484;11.112;2023-02-28T07:34:47;1.90;99.90
2721;DHT22;1368;49.484;11.112;2023-02-28T07:37:13;2.20;99.90
2721;DHT22;1368;49.484;11.112;2023-02-28T07:39:39;2.50;99.90
2721;DHT22;1368;49.484;11.112;2023-02-28T07:42:07;2.60;99.90
2721;DHT22;1368;49.484;11.112;2023-02-28T07:44:35;2.50;99.90
2721;DHT22;1368;49.484;11.112;2023-02-28T07:47:08;2.40;99.90
2721;DHT22;1368;49.484;11.112;2023-02-28T07:49:36;2.60;99.90
2721;DHT22;1368;49.484;11.112;2023-02-28T07:52:03;2.80;99.90
2721;DHT22;1368;49.484;11.112;2023-02-28T07:54:29;2.40;99.90
2721;DHT22;1368;49.484;11.112;2023-02-28T07:56:55;2.20;99.90
2721;DHT22;1368;49.484;11.112;2023-02-28T07:59:20;2.20;99.90
2721;DHT22;1368;49.484;11.112;2023-02-28T08:01:46;2.20;99.90
2721;DHT22;1368;49.484;11.112;2023-02-28T08:04:11;2.40;99.90
2721;DHT22;1368;49.484;11.112;2023-02-28T08:06:37;2.80;99.90
2721;DHT22;1368;49.484;11.112;2023-02-28T08:09:03;2.60;99.90
2721;DHT22;1368;49.484;11.112;2023-02-28T08:11:28;2.80;99.90
2721;DHT22;1368;49.484;11.112;2023-02-28T08:13:54;3.20;99.90
2721;DHT22;1368;49.484;11.112;2023-02-28T08:16:20;2.80;99.90
2721;DHT22;1368;49.484;11.112;2023-02-28T08:18:49;2.40;99.90
2721;DHT22;1368;49.484;11.112;2023-02-28T08:21:15;2.30;99.90
2721;DHT22;1368;49.484;11.112;2023-02-28T08:23:40;3.00;99.90
2721;DHT22;1368;49.484;11.112;2023-02-28T08:26:06;3.20;99.90
2721;DHT22;1368;49.484;11.112;2023-02-28T08:28:32;3.10;99.90
2721;DHT22;1368;49.484;11.112;2023-02-28T08:30:58;3.40;99.90
2721;DHT22;1368;49.484;11.112;2023-02-28T08:33:25;3.70;99.90
2721;DHT22;1368;49.484;11.112;2023-02-28T08:35:54;3.30;99.90
2721;DHT22;1368;49.484;11.112;2023-02-28T08:38:20;3.30;99.90
2721;DHT22;1368;49.484;11.112;2023-02-28T08:40:46;3.70;99.90
2721;DHT22;1368;49.484;11.112;2023-02-28T08:43:11;3.60;99.70
2721;DHT22;1368;49.484;11.112;2023-02-28T08:45:37;3.60;99.90
2721;DHT22;1368;49.484;11.112;2023-02-28T08:48:03;4.10;99.60
2721;DHT22;1368;49.484;11.112;2023-02-28T08:50:28;3.90;98.80
2721;DHT22;1368;49.484;11.112;2023-02-28T08:52:54;3.20;99.60
2721;DHT22;1368;49.484;11.112;2023-02-28T08:55:20;3.40;99.90
2721;DHT22;1368;49.484;11.112;2023-02-28T08:57:45;3.80;99.50
2721;DHT22;1368;49.484;11.112;2023-02-28T09:00:11;3.50;99.20
2721;DHT22;1368;49.484;11.112;2023-02-28T09:02:39;3.60;99.10
2721;DHT22;1368;49.484;11.112;2023-02-28T09:05:05;3.90;99.00
2721;DHT22;1368;49.484;11.112;2023-02-28T09:07:31;3.20;98.60
2721;DHT22;1368;49.484;11.112;2023-02-28T09:09:57;2.90;99.20
2721;DHT22;1368;49.484;11.112;2023-02-28T09:12:27;2.40;99.90
2721;DHT22;1368;49.484;11.112;2023-02-28T09:14:53;3.00;99.90
2721;DHT22;1368;49.484;11.112;2023-02-28T09:17:19;3.60;99.50
2721;DHT22;1368;49.484;11.112;2023-02-28T09:19:45;3.90;98.90
2721;DHT22;1368;49.484;11.112;2023-02-28T09:22:12;4.10;98.30
2721;DHT22;1368;49.484;11.112;2023-02-28T09:24:38;3.90;98.50
2721;DHT22;1368;49.484;11.112;2023-02-28T09:27:04;3.70;98.50
2721;DHT22;1368;49.484;11.112;2023-02-28T09:29:31;3.80;98.60
2721;DHT22;1368;49.484;11.112;2023-02-28T09:31:57;4.20;98.50
2721;DHT22;1368;49.484;11.112;2023-02-28T09:34:24;4.50;97.30
2721;DHT22;1368;49.484;11.112;2023-02-28T09:36:50;4.80;96.60
2721;DHT22;1368;49.484;11.112;2023-02-28T09:39:20;4.30;96.70
2721;DHT22;1368;49.484;11.112;2023-02-28T09:41:49;3.90;96.90
2721;DHT22;1368;49.484;11.112;2023-02-28T09:44:35;3.70;97.40
2721;DHT22;1368;49.484;11.112;2023-02-28T09:47:11;3.80;97.40
2721;DHT22;1368;49.484;11.112;2023-02-28T09:49:44;3.80;97.40
2721;DHT22;1368;49.484;11.112;2023-02-28T09:52:17;4.20;97.10
2721;DHT22;1368;49.484;11.112;2023-02-28T09:54:43;4.40;96.30
2721;DHT22;1368;49.484;11.112;2023-02-28T09:57:17;4.30;96.10
2721;DHT22;1368;49.484;11.112;2023-02-28T10:04:51;3.70;96.90
2721;DHT22;1368;49.484;11.112;2023-02-28T10:07:43;3.50;96.70
2721;DHT22;1368;49.484;11.112;2023-02-28T10:10:34;3.20;97.00
2721;DHT22;1368;49.484;11.112;2023-02-28T10:13:05;3.60;97.40
2721;DHT22;1368;49.484;11.112;2023-02-28T10:15:32;4.00;96.70
2721;DHT22;1368;49.484;11.112;2023-02-28T10:18:04;4.10;95.80
2721;DHT22;1368;49.484;11.112;2023-02-28T10:20:37;4.40;95.70
2721;DHT22;1368;49.484;11.112;2023-02-28T10:23:14;4.70;95.00
2721;DHT22;1368;49.484;11.112;2023-02-28T10:25:46;4.60;94.70
2721;DHT22;1368;49.484;11.112;2023-02-28T10:28:15;4.10;95.00
2721;DHT22;1368;49.484;11.112;2023-02-28T10:30:45;4.00;95.70
2721;DHT22;1368;49.484;11.112;2023-02-28T10:35:45;4.50;94.50
2721;DHT22;1368;49.484;11.112;2023-02-28T10:38:20;4.40;94.60
2721;DHT22;1368;49.484;11.112;2023-02-28T10:40:46;4.20;94.70
2721;DHT22;1368;49.484;11.112;2023-02-28T10:48:32;4.30;95.10
2721;DHT22;1368;49.484;11.112;2023-02-28T10:50:59;4.50;94.90
2721;DHT22;1368;49.484;11.112;2023-02-28T10:53:32;4.70;94.80
2721;DHT22;1368;49.484;11.112;2023-02-28T11:01:40;4.10;95.20
2721;DHT22;1368;49.484;11.112;2023-02-28T11:06:44;4.10;95.30
2721;DHT22;1368;49.484;11.112;2023-02-28T11:09:23;4.30;94.40
2721;DHT22;1368;49.484;11.112;2023-02-28T11:11:50;4.30;94.40
2721;DHT22;1368;49.484;11.112;2023-02-28T11:14:21;4.30;94.60
2721;DHT22;1368;49.484;11.112;2023-02-28T11:16:48;4.30;94.60
2721;DHT22;1368;49.484;11.112;2023-02-28T11:19:26;4.30;94.10
2721;DHT22;1368;49.484;11.112;2023-02-28T11:21:59;4.40;94.30
2721;DHT22;1368;49.484;11.112;2023-02-28T11:24:29;4.40;94.30
2721;DHT22;1368;49.484;11.112;2023-02-28T11:26:57;4.30;94.50
2721;DHT22;1368;49.484;11.112;2023-02-28T11:29:25;4.40;94.50
2721;DHT22;1368;49.484;11.112;2023-02-28T11:32:16;4.60;94.30
2721;DHT22;1368;49.484;11.112;2023-02-28T11:34:44;5.00;94.30
2721;DHT22;1368;49.484;11.112;2023-02-28T11:37:16;5.10;93.60
2721;DHT22;1368;49.484;11.112;2023-02-28T11:39:43;5.20;93.40
2721;DHT22;1368;49.484;11.112;2023-02-28T11:45:11;5.00;93.70
2721;DHT22;1368;49.484;11.112;2023-02-28T11:50:32;4.50;93.60
2721;DHT22;1368;49.484;11.112;2023-02-28T11:55:39;4.10;94.30
2721;DHT22;1368;49.484;11.112;2023-02-28T12:04:17;4.00;94.60
2721;DHT22;1368;49.484;11.112;2023-02-28T12:06:47;4.20;94.40
2721;DHT22;1368;49.484;11.112;2023-02-28T12:18:01;4.50;93.80
2721;DHT22;1368;49.484;11.112;2023-02-28T12:20:39;4.30;94.10
2721;DHT22;1368;49.484;11.112;2023-02-28T12:26:13;4.20;93.90
2721;DHT22;1368;49.484;11.112;2023-02-28T12:28:44;4.30;94.60
2721;DHT22;1368;49.484;11.112;2023-02-28T12:31:24;4.50;93.90
2721;DHT22;1368;49.484;11.112;2023-02-28T12:34:01;4.40;94.00
2721;DHT22;1368;49.484;11.112;2023-02-28T12:36:28;4.60;93.80
2721;DHT22;1368;49.484;11.112;2023-02-28T12:39:00;4.40;94.00
2721;DHT22;1368;49.484;11.112;2023-02-28T12:41:46;4.40;93.90
2721;DHT22;1368;49.484;11.112;2023-02-28T12:44:26;4.50;94.10
2721;DHT22;1368;49.484;11.112;2023-02-28T12:46:56;5.10;94.30
2721;DHT22;1368;49.484;11.112;2023-02-28T12:49:29;4.60;93.70
2721;DHT22;1368;49.484;11.112;2023-02-28T12:51:58;4.50;93.80
2721;DHT22;1368;49.484;11.112;2023-02-28T12:54:26;4.50;94.00
2721;DHT22;1368;49.484;11.112;2023-02-28T12:59:56;4.60;94.00
2721;DHT22;1368;49.484;11.112;2023-02-28T13:08:18;4.90;93.80
2721;DHT22;1368;49.484;11.112;2023-02-28T13:10:49;5.20;93.50
2721;DHT22;1368;49.484;11.112;2023-02-28T13:13:21;5.20;93.30
2721;DHT22;1368;49.484;11.112;2023-02-28T13:16:06;5.40;93.40
2721;DHT22;1368;49.484;11.112;2023-02-28T13:21:03;5.20;93.70
2721;DHT22;1368;49.484;11.112;2023-02-28T13:26:03;5.40;93.60
2721;DHT22;1368;49.484;11.112;2023-02-28T13:31:30;5.00;93.90
2721;DHT22;1368;49.484;11.112;2023-02-28T13:36:29;4.70;94.30
2721;DHT22;1368;49.484;11.112;2023-02-28T13:38:57;4.80;94.20
2721;DHT22;1368;49.484;11.112;2023-02-28T13:55:16;5.00;94.10
2721;DHT22;1368;49.484;11.112;2023-02-28T14:11:49;4.80;94.10
2721;DHT22;1368;49.484;11.112;2023-02-28T14:17:03;4.80;94.50
2721;DHT22;1368;49.484;11.112;2023-02-28T14:19:31;4.80;94.50
2721;DHT22;1368;49.484;11.112;2023-02-28T14:31:05;4.60;94.80
2721;DHT22;1368;49.484;11.112;2023-02-28T14:36:27;4.60;95.10
2721;DHT22;1368;49.484;11.112;2023-02-28T14:38:57;4.60;95.10
2721;DHT22;1368;49.484;11.112;2023-02-28T14:41:33;4.60;95.10
2721;DHT22;1368;49.484;11.112;2023-02-28T14:46:40;4.90;94.60
2721;DHT22;1368;49.484;11.112;2023-02-28T14:49:30;4.80;94.60
2721;DHT22;1368;49.484;11.112;2023-02-28T14:52:17;4.60;94.60
2721;DHT22;1368;49.484;11.112;2023-02-28T14:54:43;4.70;94.50
2721;DHT22;1368;49.484;11.112;2023-02-28T14:57:29;4.60;94.60
2721;DHT22;1368;49.484;11.112;2023-02-28T15:02:33;4.50;94.70
2721;DHT22;1368;49.484;11.112;2023-02-28T15:05:02;4.60;94.60
2721;DHT22;1368;49.484;11.112;2023-02-28T15:07:35;4.50;94.50
2721;DHT22;1368;49.484;11.112;2023-02-28T15:10:27;4.50;94.80
2721;DHT22;1368;49.484;11.112;2023-02-28T15:13:01;4.80;94.60
2721;DHT22;1368;49.484;11.112;2023-02-28T15:15:57;4.60;94.80
2721;DHT22;1368;49.484;11.112;2023-02-28T15:20:50;4.50;95.20
2721;DHT22;1368;49.484;11.112;2023-02-28T15:23:17;4.50;95.20
2721;DHT22;1368;49.484;11.112;2023-02-28T15:25:43;4.60;95.10
2721;DHT22;1368;49.484;11.112;2023-02-28T15:28:19;4.50;95.30
2721;DHT22;1368;49.484;11.112;2023-02-28T15:31:00;4.50;95.40
2721;DHT22;1368;49.484;11.112;2023-02-28T15:33:30;4.30;95.70
2721;DHT22;1368;49.484;11.112;2023-02-28T15:36:12;4.80;95.80
2721;DHT22;1368;49.484;11.112;2023-02-28T15:38:38;4.30;95.60
2721;DHT22;1368;49.484;11.112;2023-02-28T15:41:04;4.40;95.50
2721;DHT22;1368;49.484;11.112;2023-02-28T15:43:38;4.30;95.60
2721;DHT22;1368;49.484;11.112;2023-02-28T15:46:12;4.40;95.60
2721;DHT22;1368;49.484;11.112;2023-02-28T15:48:55;4.30;95.80
2721;DHT22;1368;49.484;11.112;2023-02-28T15:51:36;4.20;96.10
2721;DHT22;1368;49.484;11.112;2023-02-28T15:54:10;4.30;95.80
2721;DHT22;1368;49.484;11.112;2023-02-28T15:56:49;4.20;95.90
2721;DHT22;1368;49.484;11.112;2023-02-28T15:59:22;4.30;96.20
2721;DHT22;1368;49.484;11.112;2023-02-28T16:02:13;4.30;95.50
2721;DHT22;1368;49.484;11.112;2023-02-28T16:04:55;4.30;95.90
2721;DHT22;1368;49.484;11.112;2023-02-28T16:07:21;4.40;95.70
2721;DHT22;1368;49.484;11.112;2023-02-28T16:09:47;4.30;95.90
2721;DHT22;1368;49.484;11.112;2023-02-28T16:12:13;4.20;96.10
2721;DHT22;1368;49.484;11.112;2023-02-28T16:14:39;4.10;96.30
2721;DHT22;1368;49.484;11.112;2023-02-28T16:17:07;4.10;96.50
2721;DHT22;1368;49.484;11.112;2023-02-28T16:19:37;4.00;96.60
2721;DHT22;1368;49.484;11.112;2023-02-28T16:22:03;3.90;97.00
2721;DHT22;1368;49.484;11.112;2023-02-28T16:24:28;3.80;97.20
2721;DHT22;1368;49.484;11.112;2023-02-28T16:26:55;3.80;97.20
2721;DHT22;1368;49.484;11.112;2023-02-28T16:29:31;3.60;97.30
2721;DHT22;1368;49.484;11.112;2023-02-28T16:31:58;3.50;97.50
2721;DHT22;1368;49.484;11.112;2023-02-28T16:34:24;3.70;97.50
2721;DHT22;1368;49.484;11.112;2023-02-28T16:36:50;3.70;97.30
2721;DHT22;1368;49.484;11.112;2023-02-28T16:39:16;3.70;97.40
2721;DHT22;1368;49.484;11.112;2023-02-28T16:41:43;3.60;97.40
2721;DHT22;1368;49.484;11.112;2023-02-28T16:44:28;3.30;97.90
2721;DHT22;1368;49.484;11.112;2023-02-28T16:46:54;3.20;98.10
2721;DHT22;1368;49.484;11.112;2023-02-28T16:49:20;3.20;98.30
2721;DHT22;1368;49.484;11.112;2023-02-28T16:51:46;3.20;98.50
2721;DHT22;1368;49.484;11.112;2023-02-28T16:54:12;3.20;98.60
2721;DHT22;1368;49.484;11.112;2023-02-28T16:56:40;3.20;98.60
2721;DHT22;1368;49.484;11.112;2023-02-28T16:59:08;3.00;98.70
2721;DHT22;1368;49.484;11.112;2023-02-28T17:01:34;3.00;99.00
2721;DHT22;1368;49.484;11.112;2023-02-28T17:03:59;2.80;99.30
2721;DHT22;1368;49.484;11.112;2023-02-28T17:06:28;2.80;99.40
2721;DHT22;1368;49.484;11.112;2023-02-28T17:08:54;2.90;99.40
2721;DHT22;1368;49.484;11.112;2023-02-28T17:11:21;2.70;99.40
2721;DHT22;1368;49.484;11.112;2023-02-28T17:13:47;2.70;99.50
2721;DHT22;1368;49.484;11.112;2023-02-28T17:16:30;2.70;99.70
2721;DHT22;1368;49.484;11.112;2023-02-28T17:19:02;2.80;99.80
2721;DHT22;1368;49.484;11.112;2023-02-28T17:21:29;2.90;99.40
2721;DHT22;1368;49.484;11.112;2023-02-28T17:23:55;2.70;99.70
2721;DHT22;1368;49.484;11.112;2023-02-28T17:26:22;2.60;99.80
2721;DHT22;1368;49.484;11.112;2023-02-28T17:28:50;2.60;99.90
2721;DHT22;1368;49.484;11.112;2023-02-28T17:31:16;2.60;99.90
2721;DHT22;1368;49.484;11.112;2023-02-28T17:33:42;2.70;99.90
2721;DHT22;1368;49.484;11.112;2023-02-28T17:36:14;2.60;99.80
2721;DHT22;1368;49.484;11.112;2023-02-28T17:38:40;2.50;99.90
2721;DHT22;1368;49.484;11.112;2023-02-28T17:41:07;2.40;99.90
2721;DHT22;1368;49.484;11.112;2023-02-28T17:43:34;2.50;99.90
2721;DHT22;1368;49.484;11.112;2023-02-28T17:46:00;2.50;99.90
2721;DHT22;1368;49.484;11.112;2023-02-28T17:48:25;2.70;99.90
2721;DHT22;1368;49.484;11.112;2023-02-28T17:50:51;2.60;99.90
2721;DHT22;1368;49.484;11.112;2023-02-28T17:53:16;2.60;99.90
2721;DHT22;1368;49.484;11.112;2023-02-28T17:55:42;2.50;99.90
2721;DHT22;1368;49.484;11.112;2023-02-28T17:58:10;2.40;99.90
2721;DHT22;1368;49.484;11.112;2023-02-28T18:00:37;2.40;99.90
2721;DHT22;1368;49.484;11.112;2023-02-28T18:03:03;2.40;99.90
2721;DHT22;1368;49.484;11.112;2023-02-28T18:05:29;2.80;99.90
2721;DHT22;1368;49.484;11.112;2023-02-28T18:07:55;2.80;99.90
2721;DHT22;1368;49.484;11.112;2023-02-28T18:10:21;2.90;99.60
2721;DHT22;1368;49.484;11.112;2023-02-28T18:12:51;2.70;99.40
2721;DHT22;1368;49.484;11.112;2023-02-28T18:15:18;2.50;99.90
2721;DHT22;1368;49.484;11.112;2023-02-28T18:17:46;2.40;99.90
2721;DHT22;1368;49.484;11.112;2023-02-28T18:20:12;2.40;99.90
2721;DHT22;1368;49.484;11.112;2023-02-28T18:22:38;2.40;99.90
2721;DHT22;1368;49.484;11.112;2023-02-28T18:25:05;2.30;99.90
2721;DHT22;1368;49.484;11.112;2023-02-28T18:27:31;2.40;99.90
2721;DHT22;1368;49.484;11.112;2023-02-28T18:29:57;2.40;99.90
2721;DHT22;1368;49.484;11.112;2023-02-28T18:32:22;2.50;99.90
2721;DHT22;1368;49.484;11.112;2023-02-28T18:34:48;2.40;99.90
2721;DHT22;1368;49.484;11.112;2023-02-28T18:37:14;2.20;99.90
2721;DHT22;1368;49.484;11.112;2023-02-28T18:39:40;2.20;99.90
2721;DHT22;1368;49.484;11.112;2023-02-28T18:42:06;2.00;99.90